createdAt,value
2023-04-21T00:00:32.772Z,32.53
2023-04-21T00:03:12.287Z,23.10
2023-04-21T00:05:51.154Z,21.08
2023-04-21T00:08:27.368Z,20.67
2023-04-21T00:11:02.767Z,25.13
2023-04-21T00:13:40.208Z,29.40
2023-04-21T00:16:18.511Z,28.25
2023-04-21T00:18:52.801Z,23.48
2023-04-21T00:21:32.612Z,18.20
2023-04-21T00:24:10.106Z,21.15
2023-04-21T00:26:48.087Z,22.77
2023-04-21T00:29:24.206Z,28.98
2023-04-21T00:32:00.278Z,23.45
2023-04-21T00:37:14.179Z,20.65
2023-04-21T00:39:52.876Z,20.55
2023-04-21T00:42:30.502Z,22.90
2023-04-21T00:45:09.745Z,20.20
2023-04-21T00:47:46.507Z,29.40
2023-04-21T00:50:23.741Z,25.45
2023-04-21T00:53:06.270Z,17.85
2023-04-21T00:55:43.805Z,18.10
2023-04-21T00:58:19.867Z,21.98
2023-04-21T01:00:54.529Z,21.20
2023-04-21T01:03:34.722Z,20.95
2023-04-21T01:06:12.120Z,21.30
2023-04-21T01:08:51.198Z,22.00
2023-04-21T01:11:26.769Z,19.85
2023-04-21T01:14:01.780Z,18.55
2023-04-21T01:16:40.187Z,23.45
2023-04-21T01:19:14.762Z,21.42
2023-04-21T01:21:59.051Z,27.00
2023-04-21T01:24:35.270Z,20.92
2023-04-21T01:27:15.897Z,18.40
2023-04-21T01:29:54.517Z,16.48
2023-04-21T01:32:32.755Z,17.40
2023-04-21T01:35:12.602Z,22.65
2023-04-21T01:37:54.239Z,21.15
2023-04-21T01:40:29.630Z,25.00
2023-04-21T01:43:06.406Z,21.97
2023-04-21T01:45:45.081Z,20.88
2023-04-21T01:48:18.831Z,21.20
2023-04-21T01:50:54.164Z,19.05
2023-04-21T01:53:34.218Z,25.05
2023-04-21T01:56:11.606Z,21.20
2023-04-21T01:58:49.012Z,19.17
2023-04-21T02:01:36.549Z,22.35
2023-04-21T02:04:12.912Z,18.88
2023-04-21T02:09:28.488Z,17.92
2023-04-21T02:12:04.131Z,20.50
2023-04-21T02:17:16.982Z,19.20
2023-04-21T02:19:56.122Z,21.27
2023-04-21T02:22:33.594Z,21.23
2023-04-21T02:25:11.144Z,26.27
2023-04-21T02:27:50.117Z,18.00
2023-04-21T02:30:28.415Z,18.73
2023-04-21T02:33:03.160Z,21.52
2023-04-21T02:35:39.940Z,20.15
2023-04-21T02:38:15.630Z,19.10
2023-04-21T02:40:50.859Z,18.15
2023-04-21T02:43:34.127Z,18.92
2023-04-21T02:46:10.753Z,20.98
2023-04-21T02:48:46.323Z,17.80
2023-04-21T02:51:24.659Z,25.70
2023-04-21T02:54:00.633Z,19.00
2023-04-21T02:56:37.538Z,22.52
2023-04-21T02:59:19.288Z,16.95
2023-04-21T03:01:53.993Z,18.90
2023-04-21T03:04:28.842Z,20.33
2023-04-21T03:07:05.852Z,19.88
2023-04-21T03:09:41.617Z,18.23
2023-04-21T03:12:16.886Z,18.75
2023-04-21T03:17:33.534Z,17.23
2023-04-21T03:20:12.041Z,19.83
2023-04-21T03:22:50.473Z,18.02
2023-04-21T03:25:28.376Z,17.98
2023-04-21T03:28:05.595Z,26.37
2023-04-21T03:30:44.550Z,15.37
2023-04-21T03:33:19.760Z,20.27
2023-04-21T03:35:55.546Z,22.50
2023-04-21T03:38:34.112Z,21.15
2023-04-21T03:41:11.155Z,19.30
2023-04-21T03:43:48.772Z,20.00
2023-04-21T03:46:29.169Z,21.65
2023-04-21T03:49:07.970Z,20.42
2023-04-21T03:51:44.073Z,17.95
2023-04-21T03:56:53.711Z,23.45
2023-04-21T03:59:29.305Z,15.23
2023-04-21T04:02:07.167Z,17.90
2023-04-21T04:04:42.242Z,18.02
2023-04-21T04:07:18.303Z,22.98
2023-04-21T04:09:55.182Z,21.75
2023-04-21T04:12:33.030Z,23.27
2023-04-21T04:15:11.087Z,24.75
2023-04-21T04:17:51.714Z,22.10
2023-04-21T04:20:26.442Z,20.90
2023-04-21T04:23:05.627Z,23.45
2023-04-21T04:25:44.060Z,22.85
2023-04-21T04:28:23.388Z,21.42
2023-04-21T04:31:01.075Z,20.30
2023-04-21T04:33:41.618Z,21.70
2023-04-21T04:36:20.351Z,18.90
2023-04-21T04:38:58.817Z,19.27
2023-04-21T04:41:37.067Z,29.20
2023-04-21T04:44:15.661Z,21.90
2023-04-21T04:46:54.897Z,23.13
2023-04-21T04:49:28.898Z,24.20
2023-04-21T04:52:09.072Z,25.20
2023-04-21T04:54:44.932Z,20.55
2023-04-21T04:57:23.290Z,23.90
2023-04-21T05:00:00.213Z,20.03
2023-04-21T05:02:41.594Z,19.50
2023-04-21T05:05:19.330Z,19.25
2023-04-21T05:07:58.035Z,26.47
2023-04-21T05:10:34.172Z,21.08
2023-04-21T05:13:09.591Z,26.40
2023-04-21T05:15:46.105Z,32.13
2023-04-21T05:18:23.403Z,33.25
2023-04-21T05:21:00.210Z,37.00
2023-04-21T05:23:40.513Z,25.55
2023-04-21T05:26:20.395Z,21.95
2023-04-21T05:28:56.640Z,27.48
2023-04-21T05:31:33.882Z,25.67
2023-04-21T05:34:12.517Z,29.42
2023-04-21T05:36:49.558Z,23.77
2023-04-21T05:39:29.789Z,23.77
2023-04-21T05:42:11.504Z,23.45
2023-04-21T05:44:50.519Z,22.40
2023-04-21T05:47:26.514Z,22.87
2023-04-21T05:50:08.865Z,24.58
2023-04-21T05:52:50.322Z,22.10
2023-04-21T05:55:35.567Z,24.92
2023-04-21T05:58:13.429Z,22.05
2023-04-21T06:00:52.675Z,23.77
2023-04-21T06:03:31.096Z,21.90
2023-04-21T06:06:10.991Z,22.85
2023-04-21T06:08:52.984Z,28.88
2023-04-21T06:11:34.984Z,23.20
2023-04-21T06:14:11.751Z,22.10
2023-04-21T06:16:51.723Z,23.95
2023-04-21T06:19:28.993Z,23.73
2023-04-21T06:22:06.739Z,25.10
2023-04-21T06:24:42.699Z,22.08
2023-04-21T06:29:58.747Z,17.30
2023-04-21T06:32:36.610Z,21.30
2023-04-21T06:35:16.075Z,24.48
2023-04-21T06:37:53.276Z,17.55
2023-04-21T06:40:33.336Z,19.10
2023-04-21T06:43:24.987Z,15.65
2023-04-21T06:46:04.652Z,19.95
2023-04-21T06:51:41.515Z,15.85
2023-04-21T06:54:21.443Z,21.20
2023-04-21T06:57:01.567Z,15.57
2023-04-21T06:59:41.838Z,18.10
2023-04-21T07:02:21.336Z,23.00
2023-04-21T07:05:01.425Z,17.95
2023-04-21T07:07:40.651Z,20.15
2023-04-21T07:10:21.632Z,16.63
2023-04-21T07:12:58.560Z,15.63
2023-04-21T07:15:38.154Z,20.50
2023-04-21T07:18:17.376Z,16.95
2023-04-21T07:20:59.102Z,14.65
2023-04-21T07:23:38.281Z,15.70
2023-04-21T07:26:18.561Z,16.55
2023-04-21T07:28:56.968Z,14.30
2023-04-21T07:31:40.290Z,16.02
2023-04-21T07:34:17.141Z,14.13
2023-04-21T07:36:56.327Z,15.13
2023-04-21T07:39:33.790Z,13.57
2023-04-21T07:42:20.004Z,18.70
2023-04-21T07:45:03.136Z,16.90
2023-04-21T07:47:45.097Z,18.58
2023-04-21T07:50:25.009Z,20.17
2023-04-21T07:53:02.686Z,15.20
2023-04-21T07:55:50.669Z,17.33
2023-04-21T07:58:32.441Z,15.85
2023-04-21T08:01:14.301Z,17.55
2023-04-21T08:09:29.327Z,17.30
2023-04-21T08:12:07.330Z,20.02
2023-04-21T08:14:46.294Z,14.40
2023-04-21T08:17:26.973Z,13.90
2023-04-21T08:20:05.705Z,17.23
2023-04-21T08:22:46.636Z,15.83
2023-04-21T08:25:38.702Z,14.63
2023-04-21T08:28:20.087Z,15.10
2023-04-21T08:30:56.339Z,14.88
2023-04-21T08:36:30.834Z,13.13
2023-04-21T08:42:26.433Z,15.63
2023-04-21T08:45:03.191Z,20.65
2023-04-21T08:47:50.958Z,14.07
2023-04-21T08:50:31.349Z,15.48
2023-04-21T08:53:07.214Z,14.60
2023-04-21T08:55:47.743Z,17.25
2023-04-21T08:58:33.380Z,17.13
2023-04-21T09:01:20.376Z,14.00
2023-04-21T09:42:45.270Z,16.15
2023-04-21T09:46:10.251Z,11.88
2023-04-21T10:01:24.232Z,11.20
2023-04-21T10:07:46.256Z,10.95
2023-04-21T10:10:26.682Z,8.93
2023-04-21T10:13:21.411Z,10.15
2023-04-21T10:22:49.638Z,9.63
2023-04-21T10:26:02.904Z,7.90
2023-04-21T10:48:47.626Z,7.10
2023-04-21T10:54:18.094Z,6.30
2023-04-21T10:56:58.746Z,6.50
2023-04-21T11:02:52.699Z,6.25
2023-04-21T11:05:39.081Z,6.13
2023-04-21T11:08:16.876Z,5.47
2023-04-21T11:11:01.691Z,6.20
2023-04-21T11:13:37.742Z,9.57
2023-04-21T11:16:29.959Z,7.50
2023-04-21T11:19:08.680Z,7.28
2023-04-21T11:21:43.819Z,6.53
2023-04-21T11:24:29.740Z,5.38
2023-04-21T11:29:51.953Z,8.77
2023-04-21T11:32:29.972Z,8.93
2023-04-21T11:35:11.917Z,11.48
2023-04-21T11:37:50.953Z,8.43
2023-04-21T11:40:32.393Z,8.60
2023-04-21T11:43:15.195Z,6.20
2023-04-21T11:48:36.416Z,6.60
2023-04-21T11:54:17.733Z,8.75
2023-04-21T11:57:02.648Z,9.00
2023-04-21T11:59:44.284Z,7.90
2023-04-21T12:02:26.923Z,10.57
2023-04-21T12:14:51.485Z,7.15
2023-04-21T12:20:42.135Z,7.00
2023-04-21T12:39:25.642Z,5.63
2023-04-21T12:42:48.668Z,7.40
2023-04-21T12:49:26.363Z,5.55
2023-04-21T12:52:08.213Z,6.35
2023-04-21T13:00:31.397Z,8.53
2023-04-21T13:03:08.145Z,5.63
2023-04-21T13:05:47.812Z,6.95
2023-04-21T13:08:35.123Z,10.73
2023-04-21T13:11:24.733Z,8.65
2023-04-21T13:14:02.387Z,5.40
2023-04-21T13:16:45.649Z,9.70
2023-04-21T13:19:22.793Z,6.47
2023-04-21T13:21:59.178Z,8.50
2023-04-21T13:24:40.050Z,5.20
2023-04-21T13:27:16.426Z,6.97
2023-04-21T13:29:55.110Z,9.07
2023-04-21T13:32:34.557Z,8.85
2023-04-21T13:35:14.749Z,10.48
2023-04-21T13:38:04.224Z,9.50
2023-04-21T13:40:47.410Z,6.15
2023-04-21T13:43:29.451Z,6.25
2023-04-21T13:46:07.307Z,9.20
2023-04-21T13:48:52.844Z,8.68
2023-04-21T13:51:40.907Z,6.50
2023-04-21T13:54:24.211Z,7.75
2023-04-21T13:57:06.877Z,7.85
2023-04-21T13:59:55.335Z,6.60
2023-04-21T14:02:35.567Z,6.85
2023-04-21T14:05:20.663Z,7.32
2023-04-21T14:07:58.450Z,6.40
2023-04-21T14:10:35.879Z,7.07
2023-04-21T14:16:16.321Z,6.32
2023-04-21T14:19:05.035Z,7.72
2023-04-21T14:21:51.626Z,7.22
2023-04-21T14:24:34.056Z,6.45
2023-04-21T14:27:14.668Z,13.48
2023-04-21T14:30:15.197Z,6.90
2023-04-21T14:32:51.794Z,7.82
2023-04-21T14:35:46.723Z,5.78
2023-04-21T14:38:21.763Z,9.85
2023-04-21T14:41:08.190Z,10.65
2023-04-21T14:43:48.417Z,10.35
2023-04-21T14:46:31.126Z,7.38
2023-04-21T14:49:10.495Z,7.85
2023-04-21T14:51:50.660Z,7.67
2023-04-21T14:54:31.701Z,6.90
2023-04-21T14:57:21.038Z,9.07
2023-04-21T15:00:09.978Z,6.50
2023-04-21T15:02:52.086Z,7.53
2023-04-21T15:05:31.617Z,6.17
2023-04-21T15:08:24.855Z,6.15
2023-04-21T15:10:59.636Z,9.20
2023-04-21T15:13:40.442Z,11.13
2023-04-21T15:16:23.488Z,6.95
2023-04-21T15:19:10.350Z,7.10
2023-04-21T15:21:56.352Z,8.60
2023-04-21T15:24:32.297Z,9.73
2023-04-21T15:27:14.814Z,8.07
2023-04-21T15:29:53.873Z,8.35
2023-04-21T15:32:33.570Z,8.43
2023-04-21T15:35:18.004Z,6.47
2023-04-21T15:37:55.826Z,13.27
2023-04-21T15:40:34.310Z,11.17
2023-04-21T15:43:25.631Z,6.78
2023-04-21T15:46:16.771Z,6.78
2023-04-21T15:51:50.404Z,8.40
2023-04-21T15:57:11.152Z,16.48
2023-04-21T15:59:58.073Z,25.00
2023-04-21T16:02:40.999Z,23.50
2023-04-21T16:05:20.098Z,20.05
2023-04-21T16:08:14.291Z,48.75
2023-04-21T16:13:51.986Z,42.95
2023-04-21T16:16:34.491Z,38.13
2023-04-21T16:19:17.788Z,27.15
2023-04-21T16:22:07.219Z,24.05
2023-04-21T16:24:49.359Z,21.95
2023-04-21T16:30:18.469Z,31.93
2023-04-21T16:33:01.058Z,97.20
2023-04-21T16:35:57.905Z,42.40
2023-04-21T16:41:13.234Z,44.67
2023-04-21T16:43:57.682Z,96.53
2023-04-21T16:46:40.392Z,62.30
2023-04-21T16:49:22.916Z,21.70
2023-04-21T16:52:05.357Z,28.25
2023-04-21T16:54:43.231Z,13.60
2023-04-21T16:57:35.069Z,8.97
2023-04-21T17:00:19.781Z,11.57
2023-04-21T17:09:20.814Z,11.83
2023-04-21T17:12:08.168Z,16.90
2023-04-21T17:14:59.670Z,8.67
2023-04-21T17:20:50.915Z,12.43
2023-04-21T17:23:56.479Z,11.20
2023-04-21T17:26:59.438Z,15.00
2023-04-21T17:29:53.099Z,29.63
2023-04-21T17:32:46.611Z,33.30
2023-04-21T17:35:59.819Z,57.40
2023-04-21T17:39:00.698Z,32.70
2023-04-21T17:41:42.756Z,22.40
2023-04-21T17:44:26.425Z,22.38
2023-04-21T17:47:09.764Z,17.60
2023-04-21T17:50:02.478Z,16.65
2023-04-21T17:52:41.977Z,15.00
2023-04-21T17:55:51.960Z,23.90
2023-04-21T18:01:13.338Z,17.95
2023-04-21T18:04:03.910Z,11.80
2023-04-21T18:06:48.166Z,13.70
2023-04-21T18:09:25.034Z,13.77
2023-04-21T18:12:11.774Z,18.47
2023-04-21T18:14:49.758Z,26.90
2023-04-21T18:17:28.160Z,17.70
2023-04-21T18:20:08.600Z,10.70
2023-04-21T18:22:53.696Z,11.80
2023-04-21T18:28:17.336Z,19.58
2023-04-21T18:30:57.114Z,19.65
2023-04-21T18:33:32.968Z,10.48
2023-04-21T18:38:52.002Z,9.73
2023-04-21T18:41:31.652Z,12.77
2023-04-21T18:44:14.305Z,24.50
2023-04-21T18:46:58.872Z,27.85
2023-04-21T18:49:39.826Z,55.83
2023-04-21T18:52:16.864Z,9.43
2023-04-21T18:54:56.839Z,12.55
2023-04-21T18:57:46.840Z,10.00
2023-04-21T19:00:25.965Z,9.27
2023-04-21T19:03:03.208Z,10.27
2023-04-21T19:05:47.112Z,6.78
2023-04-21T19:08:34.303Z,7.40
2023-04-21T19:11:23.543Z,8.50
2023-04-21T19:14:02.420Z,8.00
2023-04-21T19:16:41.486Z,7.88
2023-04-21T19:19:20.932Z,9.10
2023-04-21T19:21:56.397Z,8.25
2023-04-21T19:24:33.293Z,7.75
2023-04-21T19:27:14.524Z,10.73
2023-04-21T19:29:54.179Z,7.30
2023-04-21T19:32:34.549Z,8.68
2023-04-21T19:35:14.744Z,10.10
2023-04-21T19:37:53.664Z,10.55
2023-04-21T19:40:31.261Z,10.60
2023-04-21T19:43:16.093Z,10.80
2023-04-21T19:45:52.803Z,11.05
2023-04-21T19:48:28.959Z,13.15
2023-04-21T19:51:10.088Z,9.05
2023-04-21T19:53:56.304Z,12.53
2023-04-21T19:56:40.746Z,13.02
2023-04-21T19:59:29.982Z,11.13
2023-04-21T20:02:10.149Z,10.85
2023-04-21T20:04:45.788Z,9.82
2023-04-21T20:07:24.067Z,11.50
2023-04-21T20:10:03.027Z,9.27
2023-04-21T20:12:38.899Z,9.27
2023-04-21T20:17:58.665Z,7.88
2023-04-21T20:20:42.030Z,10.77
2023-04-21T20:23:18.763Z,10.23
2023-04-21T20:25:58.756Z,10.50
2023-04-21T20:28:37.696Z,10.43
2023-04-21T20:31:26.513Z,8.00
2023-04-21T20:34:09.907Z,8.75
2023-04-21T20:36:52.777Z,9.60
2023-04-21T20:39:34.100Z,9.05
2023-04-21T20:42:20.264Z,11.60
2023-04-21T20:44:56.412Z,10.90
2023-04-21T20:47:47.479Z,9.35
2023-04-21T20:50:33.440Z,9.05
2023-04-21T20:53:17.675Z,9.00
2023-04-21T20:55:57.189Z,8.75
2023-04-21T20:58:41.453Z,8.47
2023-04-21T21:01:30.087Z,8.80
2023-04-21T21:04:25.758Z,13.55
2023-04-21T21:07:06.032Z,7.60
2023-04-21T21:09:56.171Z,8.88
2023-04-21T21:15:37.618Z,8.27
2023-04-21T21:18:19.985Z,8.90
2023-04-21T21:21:08.105Z,8.60
2023-04-21T21:23:49.227Z,9.13
2023-04-21T21:26:30.351Z,7.97
2023-04-21T21:29:07.300Z,10.20
2023-04-21T21:31:53.826Z,9.73
2023-04-21T21:37:15.011Z,10.50
2023-04-21T21:39:56.463Z,7.55
2023-04-21T21:42:32.505Z,11.68
2023-04-21T21:45:19.103Z,9.32
2023-04-21T21:48:08.472Z,8.32
2023-04-21T21:50:45.551Z,8.43
2023-04-21T21:53:26.945Z,12.65
2023-04-21T21:56:03.974Z,13.70
2023-04-21T21:58:49.520Z,10.10
2023-04-21T22:01:25.296Z,12.00
2023-04-21T22:04:04.716Z,12.50
2023-04-21T22:06:47.848Z,14.02
2023-04-21T22:09:28.908Z,14.02
2023-04-21T22:12:07.734Z,12.93
2023-04-21T22:14:48.024Z,10.05
2023-04-21T22:17:26.429Z,14.80
2023-04-21T22:20:09.183Z,10.07
2023-04-21T22:22:43.499Z,12.68
2023-04-21T22:25:27.512Z,12.45
2023-04-21T22:28:05.666Z,12.15
2023-04-21T22:30:42.252Z,11.95
2023-04-21T22:33:19.855Z,13.02
2023-04-21T22:35:58.065Z,13.20
2023-04-21T22:38:36.453Z,12.68
2023-04-21T22:41:29.081Z,15.73
2023-04-21T22:44:04.605Z,12.30
2023-04-21T22:46:42.334Z,13.15
2023-04-21T22:49:18.914Z,14.52
2023-04-21T22:51:55.351Z,9.85
2023-04-21T22:54:33.004Z,12.38
2023-04-21T22:57:11.160Z,13.33
2023-04-21T22:59:47.645Z,11.85
2023-04-21T23:02:24.916Z,12.52
2023-04-21T23:05:06.634Z,10.30
2023-04-21T23:07:44.477Z,15.93
2023-04-21T23:10:26.528Z,10.30
2023-04-21T23:13:09.326Z,11.15
2023-04-21T23:15:45.221Z,11.02
2023-04-21T23:18:23.316Z,11.38
2023-04-21T23:20:59.065Z,10.27
2023-04-21T23:23:35.314Z,9.88
2023-04-21T23:26:11.765Z,13.00
2023-04-21T23:28:55.848Z,9.10
2023-04-21T23:31:34.033Z,12.98
2023-04-21T23:34:12.728Z,15.53
2023-04-21T23:36:52.664Z,15.75
2023-04-21T23:39:31.653Z,16.60
2023-04-21T23:42:11.917Z,17.35
2023-04-21T23:44:54.111Z,10.02
2023-04-21T23:47:32.915Z,10.25
2023-04-21T23:50:10.879Z,10.10
2023-04-21T23:52:50.385Z,9.07
2023-04-21T23:55:26.547Z,11.32
2023-04-21T23:58:04.410Z,11.20
